8XS9 weather

Rust Field
Waring, Texas, United States

Public forecast

Using degrees Fahrenheit for public forecast. Weather courtesy of forecast.io.

Closest aviation weather report (METAR) to Rust Field

Closest report is Boerne Stage Field, 14.9 nm (27.5 km) SSE. Retrieved 2020/08/06 15:35 UTC (24 minutes ago):

K5C1 061535Z AUTO 22008G19KT 10SM BKN021 OVC028 27/20 A3006 RMK AO1

Closest aviation forecast (TAF) to Rust Field

Closest forecast is San Antonio International Airport, 30.4 nm (56.4 km) SSE. Retrieved 2020/08/06 12:42 UTC (3 hours ago):

TAF KSAT 061138Z 0612/0718 18007KT P6SM BKN011 FM061500 18009KT P6SM FEW035 FM061900 14012KT P6SM FEW050 FM070800 17007KT P6SM BKN011 FM071600 17010KT P6SM SCT050